If you wish to contribute or participate in the discussions about articles you are invited to join SKYbrary as a registered user

 Actions

Getafe Air Base

From SKYbrary Wiki

LEGT
Airport
ICAO: LEGT
Summary
Name Getafe Air Base
Region Europe
Territory Spain ES.gif
Location
Serving Madrid
Elevation 619.049 m
2,031 ft
2,031 ft619.049 m
Type medium airport
Coordinates 40° 17' 38.90" N, 3° 43' 25.80" W
Runways
Designator Length Width Surface ROPS
5/23 2480 m8,136.483 ft
60 m196.85 ft
ASP /
05R/23L 920 m3,018.373 ft
30 m98.425 ft
GRE /


METAR
Observation LEGT 141100Z 26015KT 230V300 9999 FEW015 SCT020 BKN035 17/13 Q1014
Station Madrid / Getafe
Date/Time 14 October 2019 11:00:00
Wind direction 260°
Wind speed 15 kts
Lowest cloud amount few clouds
Temperature 17°C
Dew point 13°C
Humidity 77%
QNH 1014 hPa
Weather condition n/a